sensor_id;sensor_type;location;lat;lon;timestamp;P1;durP1;ratioP1;P2;durP2;ratioP2
65230;SDS011;51813;40.666;16.602;2022-12-26T00:00:26;5.65;;;3.47;;
65230;SDS011;51813;40.666;16.602;2022-12-26T00:02:53;4.78;;;3.47;;
65230;SDS011;51813;40.666;16.602;2022-12-26T00:05:19;5.13;;;3.53;;
65230;SDS011;51813;40.666;16.602;2022-12-26T00:07:45;5.10;;;3.28;;
65230;SDS011;51813;40.666;16.602;2022-12-26T00:10:10;4.47;;;3.28;;
65230;SDS011;51813;40.666;16.602;2022-12-26T00:12:36;4.80;;;3.40;;
65230;SDS011;51813;40.666;16.602;2022-12-26T00:15:02;4.43;;;3.53;;
65230;SDS011;51813;40.666;16.602;2022-12-26T00:17:29;5.88;;;3.58;;
65230;SDS011;51813;40.666;16.602;2022-12-26T00:19:54;4.47;;;3.15;;
65230;SDS011;51813;40.666;16.602;2022-12-26T00:22:20;4.32;;;3.30;;
65230;SDS011;51813;40.666;16.602;2022-12-26T00:24:46;4.63;;;3.50;;
65230;SDS011;51813;40.666;16.602;2022-12-26T00:27:11;5.03;;;3.35;;
65230;SDS011;51813;40.666;16.602;2022-12-26T00:29:37;4.03;;;3.05;;
65230;SDS011;51813;40.666;16.602;2022-12-26T00:32:03;4.30;;;3.28;;
65230;SDS011;51813;40.666;16.602;2022-12-26T00:34:28;4.10;;;3.10;;
65230;SDS011;51813;40.666;16.602;2022-12-26T00:36:54;4.32;;;3.20;;
65230;SDS011;51813;40.666;16.602;2022-12-26T00:39:20;5.68;;;3.80;;
65230;SDS011;51813;40.666;16.602;2022-12-26T00:41:45;5.75;;;3.55;;
65230;SDS011;51813;40.666;16.602;2022-12-26T00:44:11;4.53;;;3.38;;
65230;SDS011;51813;40.666;16.602;2022-12-26T00:46:37;4.47;;;3.38;;
65230;SDS011;51813;40.666;16.602;2022-12-26T00:49:02;4.80;;;3.45;;
65230;SDS011;51813;40.666;16.602;2022-12-26T00:51:28;5.05;;;3.28;;
65230;SDS011;51813;40.666;16.602;2022-12-26T00:53:54;4.80;;;3.58;;
65230;SDS011;51813;40.666;16.602;2022-12-26T00:56:20;4.60;;;3.20;;
65230;SDS011;51813;40.666;16.602;2022-12-26T00:58:45;5.25;;;3.55;;
65230;SDS011;51813;40.666;16.602;2022-12-26T01:01:13;6.03;;;3.67;;
65230;SDS011;51813;40.666;16.602;2022-12-26T01:03:44;5.22;;;3.42;;
65230;SDS011;51813;40.666;16.602;2022-12-26T01:06:10;5.35;;;3.33;;
65230;SDS011;51813;40.666;16.602;2022-12-26T01:08:36;5.22;;;3.50;;
65230;SDS011;51813;40.666;16.602;2022-12-26T01:11:04;5.15;;;3.72;;
65230;SDS011;51813;40.666;16.602;2022-12-26T01:13:31;5.57;;;4.00;;
65230;SDS011;51813;40.666;16.602;2022-12-26T01:15:57;6.10;;;4.55;;
65230;SDS011;51813;40.666;16.602;2022-12-26T01:18:23;6.63;;;4.40;;
65230;SDS011;51813;40.666;16.602;2022-12-26T01:20:49;6.05;;;4.20;;
65230;SDS011;51813;40.666;16.602;2022-12-26T01:23:15;6.55;;;4.18;;
65230;SDS011;51813;40.666;16.602;2022-12-26T01:25:41;5.90;;;4.25;;
65230;SDS011;51813;40.666;16.602;2022-12-26T01:28:07;4.75;;;3.63;;
65230;SDS011;51813;40.666;16.602;2022-12-26T01:30:33;5.20;;;3.63;;
65230;SDS011;51813;40.666;16.602;2022-12-26T01:32:58;6.22;;;4.03;;
65230;SDS011;51813;40.666;16.602;2022-12-26T01:35:24;5.35;;;3.80;;
65230;SDS011;51813;40.666;16.602;2022-12-26T01:37:50;6.85;;;3.95;;
65230;SDS011;51813;40.666;16.602;2022-12-26T01:40:15;5.03;;;3.80;;
65230;SDS011;51813;40.666;16.602;2022-12-26T01:42:41;5.68;;;4.10;;
65230;SDS011;51813;40.666;16.602;2022-12-26T01:53:04;6.05;;;4.28;;
65230;SDS011;51813;40.666;16.602;2022-12-26T01:55:36;6.00;;;4.38;;
65230;SDS011;51813;40.666;16.602;2022-12-26T01:58:05;6.50;;;4.53;;
65230;SDS011;51813;40.666;16.602;2022-12-26T02:00:36;6.57;;;5.00;;
65230;SDS011;51813;40.666;16.602;2022-12-26T02:03:03;6.47;;;4.65;;
65230;SDS011;51813;40.666;16.602;2022-12-26T02:05:52;6.57;;;5.05;;
65230;SDS011;51813;40.666;16.602;2022-12-26T02:08:23;8.50;;;5.07;;
65230;SDS011;51813;40.666;16.602;2022-12-26T02:11:05;6.60;;;5.00;;
65230;SDS011;51813;40.666;16.602;2022-12-26T02:13:50;7.30;;;5.10;;
65230;SDS011;51813;40.666;16.602;2022-12-26T02:16:16;7.28;;;5.18;;
65230;SDS011;51813;40.666;16.602;2022-12-26T02:18:43;7.93;;;5.20;;
65230;SDS011;51813;40.666;16.602;2022-12-26T02:23:50;7.47;;;5.10;;
65230;SDS011;51813;40.666;16.602;2022-12-26T02:34:36;6.80;;;5.18;;
65230;SDS011;51813;40.666;16.602;2022-12-26T02:37:22;7.07;;;5.35;;
65230;SDS011;51813;40.666;16.602;2022-12-26T02:45:32;7.72;;;5.28;;
65230;SDS011;51813;40.666;16.602;2022-12-26T02:48:35;6.40;;;4.82;;
65230;SDS011;51813;40.666;16.602;2022-12-26T02:54:38;8.20;;;5.30;;
65230;SDS011;51813;40.666;16.602;2022-12-26T02:58:47;6.82;;;5.35;;
65230;SDS011;51813;40.666;16.602;2022-12-26T03:01:15;6.45;;;4.90;;
65230;SDS011;51813;40.666;16.602;2022-12-26T03:04:09;6.40;;;5.03;;
65230;SDS011;51813;40.666;16.602;2022-12-26T03:06:57;7.32;;;5.50;;
65230;SDS011;51813;40.666;16.602;2022-12-26T03:09:44;7.18;;;5.40;;
65230;SDS011;51813;40.666;16.602;2022-12-26T03:12:46;6.60;;;4.97;;
65230;SDS011;51813;40.666;16.602;2022-12-26T03:15:44;7.65;;;5.65;;
65230;SDS011;51813;40.666;16.602;2022-12-26T03:18:35;7.03;;;5.20;;
65230;SDS011;51813;40.666;16.602;2022-12-26T03:21:05;7.20;;;5.60;;
65230;SDS011;51813;40.666;16.602;2022-12-26T03:23:32;7.38;;;5.00;;
65230;SDS011;51813;40.666;16.602;2022-12-26T03:26:08;6.53;;;5.03;;
65230;SDS011;51813;40.666;16.602;2022-12-26T03:28:57;6.88;;;5.30;;
65230;SDS011;51813;40.666;16.602;2022-12-26T03:31:43;7.40;;;4.70;;
65230;SDS011;51813;40.666;16.602;2022-12-26T03:34:09;6.75;;;5.30;;
65230;SDS011;51813;40.666;16.602;2022-12-26T03:42:50;6.18;;;4.95;;
65230;SDS011;51813;40.666;16.602;2022-12-26T03:48:56;5.90;;;4.55;;
65230;SDS011;51813;40.666;16.602;2022-12-26T03:51:43;6.15;;;4.63;;
65230;SDS011;51813;40.666;16.602;2022-12-26T03:57:24;6.22;;;4.47;;
65230;SDS011;51813;40.666;16.602;2022-12-26T04:00:18;5.15;;;4.00;;
65230;SDS011;51813;40.666;16.602;2022-12-26T04:03:04;6.05;;;4.45;;
65230;SDS011;51813;40.666;16.602;2022-12-26T04:05:52;5.80;;;4.43;;
65230;SDS011;51813;40.666;16.602;2022-12-26T04:11:46;5.18;;;3.90;;
65230;SDS011;51813;40.666;16.602;2022-12-26T04:23:42;4.90;;;3.70;;
65230;SDS011;51813;40.666;16.602;2022-12-26T04:26:45;5.20;;;3.83;;
65230;SDS011;51813;40.666;16.602;2022-12-26T04:29:33;5.05;;;3.75;;
65230;SDS011;51813;40.666;16.602;2022-12-26T04:32:20;5.28;;;3.67;;
65230;SDS011;51813;40.666;16.602;2022-12-26T04:35:28;5.63;;;4.20;;
65230;SDS011;51813;40.666;16.602;2022-12-26T04:38:15;5.20;;;3.70;;
65230;SDS011;51813;40.666;16.602;2022-12-26T04:41:04;5.53;;;3.60;;
65230;SDS011;51813;40.666;16.602;2022-12-26T04:43:51;4.82;;;3.60;;
65230;SDS011;51813;40.666;16.602;2022-12-26T04:46:28;5.30;;;3.40;;
65230;SDS011;51813;40.666;16.602;2022-12-26T04:48:56;5.05;;;3.40;;
65230;SDS011;51813;40.666;16.602;2022-12-26T04:51:42;5.57;;;3.70;;
65230;SDS011;51813;40.666;16.602;2022-12-26T04:54:07;4.88;;;3.75;;
65230;SDS011;51813;40.666;16.602;2022-12-26T04:56:33;6.55;;;3.63;;
65230;SDS011;51813;40.666;16.602;2022-12-26T04:58:59;4.30;;;3.33;;
65230;SDS011;51813;40.666;16.602;2022-12-26T05:01:25;5.45;;;3.30;;
65230;SDS011;51813;40.666;16.602;2022-12-26T05:04:13;6.07;;;3.38;;
65230;SDS011;51813;40.666;16.602;2022-12-26T05:06:58;5.03;;;3.53;;
65230;SDS011;51813;40.666;16.602;2022-12-26T05:09:44;4.88;;;3.50;;
65230;SDS011;51813;40.666;16.602;2022-12-26T05:12:12;4.22;;;3.20;;
65230;SDS011;51813;40.666;16.602;2022-12-26T05:14:38;6.10;;;3.28;;
65230;SDS011;51813;40.666;16.602;2022-12-26T05:17:05;5.15;;;3.30;;
65230;SDS011;51813;40.666;16.602;2022-12-26T05:19:50;5.57;;;3.47;;
65230;SDS011;51813;40.666;16.602;2022-12-26T05:22:39;4.57;;;3.50;;
65230;SDS011;51813;40.666;16.602;2022-12-26T05:25:26;5.15;;;3.17;;
65230;SDS011;51813;40.666;16.602;2022-12-26T05:28:12;4.82;;;3.50;;
65230;SDS011;51813;40.666;16.602;2022-12-26T05:30:58;5.03;;;3.67;;
65230;SDS011;51813;40.666;16.602;2022-12-26T05:33:25;5.45;;;3.60;;
65230;SDS011;51813;40.666;16.602;2022-12-26T05:36:10;4.70;;;3.10;;
65230;SDS011;51813;40.666;16.602;2022-12-26T05:38:37;4.55;;;3.40;;
65230;SDS011;51813;40.666;16.602;2022-12-26T05:41:03;4.50;;;3.13;;
65230;SDS011;51813;40.666;16.602;2022-12-26T05:43:29;4.43;;;3.13;;
65230;SDS011;51813;40.666;16.602;2022-12-26T05:45:54;3.80;;;2.95;;
65230;SDS011;51813;40.666;16.602;2022-12-26T05:48:20;5.03;;;3.30;;
65230;SDS011;51813;40.666;16.602;2022-12-26T05:50:46;3.92;;;2.90;;
65230;SDS011;51813;40.666;16.602;2022-12-26T05:53:11;4.15;;;3.05;;
65230;SDS011;51813;40.666;16.602;2022-12-26T05:55:37;5.00;;;2.88;;
65230;SDS011;51813;40.666;16.602;2022-12-26T05:58:03;4.25;;;3.00;;
65230;SDS011;51813;40.666;16.602;2022-12-26T06:00:29;4.45;;;2.90;;
65230;SDS011;51813;40.666;16.602;2022-12-26T06:02:55;4.22;;;2.95;;
65230;SDS011;51813;40.666;16.602;2022-12-26T06:05:22;4.50;;;2.88;;
65230;SDS011;51813;40.666;16.602;2022-12-26T06:07:48;4.00;;;2.70;;
65230;SDS011;51813;40.666;16.602;2022-12-26T06:10:14;4.82;;;3.10;;
65230;SDS011;51813;40.666;16.602;2022-12-26T06:12:39;3.88;;;2.78;;
65230;SDS011;51813;40.666;16.602;2022-12-26T06:15:05;4.97;;;2.90;;
65230;SDS011;51813;40.666;16.602;2022-12-26T06:17:31;4.10;;;2.78;;
65230;SDS011;51813;40.666;16.602;2022-12-26T06:19:57;4.78;;;3.00;;
65230;SDS011;51813;40.666;16.602;2022-12-26T06:22:22;4.32;;;3.08;;
65230;SDS011;51813;40.666;16.602;2022-12-26T06:24:48;5.28;;;3.22;;
65230;SDS011;51813;40.666;16.602;2022-12-26T06:27:14;4.18;;;2.90;;
65230;SDS011;51813;40.666;16.602;2022-12-26T06:29:39;4.28;;;3.08;;
65230;SDS011;51813;40.666;16.602;2022-12-26T06:32:05;4.45;;;2.92;;
65230;SDS011;51813;40.666;16.602;2022-12-26T06:34:31;4.53;;;3.13;;
65230;SDS011;51813;40.666;16.602;2022-12-26T06:36:57;5.18;;;3.20;;
65230;SDS011;51813;40.666;16.602;2022-12-26T06:39:22;4.45;;;3.33;;
65230;SDS011;51813;40.666;16.602;2022-12-26T06:41:48;4.32;;;2.90;;
65230;SDS011;51813;40.666;16.602;2022-12-26T06:44:14;4.82;;;2.83;;
65230;SDS011;51813;40.666;16.602;2022-12-26T06:46:40;3.92;;;2.78;;
65230;SDS011;51813;40.666;16.602;2022-12-26T06:49:06;3.50;;;2.53;;
65230;SDS011;51813;40.666;16.602;2022-12-26T06:51:32;4.07;;;2.80;;
65230;SDS011;51813;40.666;16.602;2022-12-26T06:54:00;4.43;;;2.90;;
65230;SDS011;51813;40.666;16.602;2022-12-26T06:56:29;4.40;;;3.00;;
65230;SDS011;51813;40.666;16.602;2022-12-26T06:58:59;4.30;;;2.92;;
65230;SDS011;51813;40.666;16.602;2022-12-26T07:01:27;4.68;;;2.65;;
65230;SDS011;51813;40.666;16.602;2022-12-26T07:03:55;4.72;;;3.10;;
65230;SDS011;51813;40.666;16.602;2022-12-26T07:06:22;5.85;;;3.30;;
65230;SDS011;51813;40.666;16.602;2022-12-26T07:08:55;8.40;;;4.00;;
65230;SDS011;51813;40.666;16.602;2022-12-26T07:11:24;4.43;;;3.08;;
65230;SDS011;51813;40.666;16.602;2022-12-26T07:13:52;5.75;;;3.13;;
65230;SDS011;51813;40.666;16.602;2022-12-26T07:16:18;4.45;;;3.08;;
65230;SDS011;51813;40.666;16.602;2022-12-26T07:18:44;4.10;;;2.90;;
65230;SDS011;51813;40.666;16.602;2022-12-26T07:21:11;4.63;;;3.20;;
65230;SDS011;51813;40.666;16.602;2022-12-26T07:23:38;5.68;;;3.30;;
65230;SDS011;51813;40.666;16.602;2022-12-26T07:26:04;4.70;;;2.95;;
65230;SDS011;51813;40.666;16.602;2022-12-26T07:28:30;5.10;;;2.97;;
65230;SDS011;51813;40.666;16.602;2022-12-26T07:30:56;4.70;;;3.30;;
65230;SDS011;51813;40.666;16.602;2022-12-26T07:33:24;5.68;;;3.25;;
65230;SDS011;51813;40.666;16.602;2022-12-26T07:35:50;5.47;;;3.20;;
65230;SDS011;51813;40.666;16.602;2022-12-26T07:38:16;5.60;;;3.42;;
65230;SDS011;51813;40.666;16.602;2022-12-26T07:40:42;4.53;;;3.30;;
65230;SDS011;51813;40.666;16.602;2022-12-26T07:43:07;5.75;;;3.20;;
65230;SDS011;51813;40.666;16.602;2022-12-26T07:45:33;5.75;;;3.88;;
65230;SDS011;51813;40.666;16.602;2022-12-26T07:47:59;5.68;;;3.80;;
65230;SDS011;51813;40.666;16.602;2022-12-26T07:50:25;5.82;;;3.92;;
65230;SDS011;51813;40.666;16.602;2022-12-26T07:52:52;5.80;;;4.05;;
65230;SDS011;51813;40.666;16.602;2022-12-26T07:55:18;5.90;;;3.95;;
65230;SDS011;51813;40.666;16.602;2022-12-26T07:57:48;5.80;;;4.53;;
65230;SDS011;51813;40.666;16.602;2022-12-26T08:00:15;6.47;;;4.30;;
65230;SDS011;51813;40.666;16.602;2022-12-26T08:02:42;6.82;;;4.50;;
65230;SDS011;51813;40.666;16.602;2022-12-26T08:05:08;5.53;;;4.03;;
65230;SDS011;51813;40.666;16.602;2022-12-26T08:07:34;6.88;;;4.75;;
65230;SDS011;51813;40.666;16.602;2022-12-26T08:09:59;5.32;;;4.40;;
65230;SDS011;51813;40.666;16.602;2022-12-26T08:12:25;6.53;;;5.05;;
65230;SDS011;51813;40.666;16.602;2022-12-26T08:14:51;7.28;;;4.90;;
65230;SDS011;51813;40.666;16.602;2022-12-26T08:17:17;6.07;;;4.65;;
65230;SDS011;51813;40.666;16.602;2022-12-26T08:19:42;6.20;;;4.60;;
65230;SDS011;51813;40.666;16.602;2022-12-26T08:22:08;8.35;;;5.20;;
65230;SDS011;51813;40.666;16.602;2022-12-26T08:24:34;5.72;;;4.30;;
65230;SDS011;51813;40.666;16.602;2022-12-26T08:27:00;6.13;;;3.97;;
65230;SDS011;51813;40.666;16.602;2022-12-26T08:29:25;7.82;;;4.75;;
65230;SDS011;51813;40.666;16.602;2022-12-26T08:31:51;6.07;;;4.32;;
65230;SDS011;51813;40.666;16.602;2022-12-26T08:34:17;6.95;;;4.40;;
65230;SDS011;51813;40.666;16.602;2022-12-26T08:36:42;7.15;;;4.50;;
65230;SDS011;51813;40.666;16.602;2022-12-26T08:39:08;6.90;;;4.30;;
65230;SDS011;51813;40.666;16.602;2022-12-26T08:41:34;6.07;;;3.90;;
65230;SDS011;51813;40.666;16.602;2022-12-26T08:43:59;5.25;;;3.90;;
65230;SDS011;51813;40.666;16.602;2022-12-26T08:46:25;6.10;;;4.50;;
65230;SDS011;51813;40.666;16.602;2022-12-26T08:48:51;5.90;;;4.20;;
65230;SDS011;51813;40.666;16.602;2022-12-26T08:51:21;6.85;;;4.30;;
65230;SDS011;51813;40.666;16.602;2022-12-26T08:53:48;5.15;;;3.63;;
65230;SDS011;51813;40.666;16.602;2022-12-26T08:56:16;6.43;;;4.13;;
65230;SDS011;51813;40.666;16.602;2022-12-26T08:58:44;5.00;;;4.13;;
65230;SDS011;51813;40.666;16.602;2022-12-26T09:01:13;6.35;;;3.92;;
65230;SDS011;51813;40.666;16.602;2022-12-26T09:03:42;5.47;;;3.78;;
65230;SDS011;51813;40.666;16.602;2022-12-26T09:06:09;5.93;;;4.00;;
65230;SDS011;51813;40.666;16.602;2022-12-26T09:08:36;6.20;;;4.13;;
65230;SDS011;51813;40.666;16.602;2022-12-26T09:11:04;4.78;;;3.53;;
65230;SDS011;51813;40.666;16.602;2022-12-26T09:13:34;4.43;;;3.38;;
65230;SDS011;51813;40.666;16.602;2022-12-26T09:16:07;6.00;;;3.58;;
65230;SDS011;51813;40.666;16.602;2022-12-26T09:18:33;4.57;;;3.58;;
65230;SDS011;51813;40.666;16.602;2022-12-26T09:20:59;5.50;;;3.95;;
65230;SDS011;51813;40.666;16.602;2022-12-26T09:23:26;5.07;;;3.60;;
65230;SDS011;51813;40.666;16.602;2022-12-26T09:25:52;5.53;;;3.47;;
65230;SDS011;51813;40.666;16.602;2022-12-26T09:28:18;6.07;;;3.88;;
65230;SDS011;51813;40.666;16.602;2022-12-26T09:30:44;5.22;;;3.38;;
65230;SDS011;51813;40.666;16.602;2022-12-26T09:33:10;4.63;;;3.53;;
65230;SDS011;51813;40.666;16.602;2022-12-26T09:35:38;4.70;;;3.58;;
65230;SDS011;51813;40.666;16.602;2022-12-26T09:38:05;5.32;;;3.80;;
65230;SDS011;51813;40.666;16.602;2022-12-26T09:40:34;5.13;;;3.42;;
65230;SDS011;51813;40.666;16.602;2022-12-26T09:43:25;5.68;;;3.50;;
65230;SDS011;51813;40.666;16.602;2022-12-26T09:45:59;6.45;;;3.53;;
65230;SDS011;51813;40.666;16.602;2022-12-26T09:48:38;4.80;;;3.67;;
65230;SDS011;51813;40.666;16.602;2022-12-26T09:51:25;5.18;;;3.42;;
65230;SDS011;51813;40.666;16.602;2022-12-26T09:53:52;5.22;;;3.67;;
65230;SDS011;51813;40.666;16.602;2022-12-26T09:56:19;6.60;;;3.63;;
65230;SDS011;51813;40.666;16.602;2022-12-26T10:01:22;4.22;;;3.33;;
65230;SDS011;51813;40.666;16.602;2022-12-26T10:03:58;4.97;;;3.50;;
65230;SDS011;51813;40.666;16.602;2022-12-26T10:06:38;5.57;;;3.55;;
65230;SDS011;51813;40.666;16.602;2022-12-26T10:12:32;4.78;;;3.28;;
65230;SDS011;51813;40.666;16.602;2022-12-26T10:23:27;4.13;;;3.08;;
65230;SDS011;51813;40.666;16.602;2022-12-26T10:31:30;5.20;;;3.25;;
65230;SDS011;51813;40.666;16.602;2022-12-26T10:37:00;5.68;;;3.30;;
65230;SDS011;51813;40.666;16.602;2022-12-26T10:42:52;5.10;;;3.25;;
65230;SDS011;51813;40.666;16.602;2022-12-26T10:44:57;4.53;;;3.13;;
65230;SDS011;51813;40.666;16.602;2022-12-26T10:47:29;5.80;;;3.33;;
65230;SDS011;51813;40.666;16.602;2022-12-26T10:50:01;5.15;;;3.47;;
65230;SDS011;51813;40.666;16.602;2022-12-26T10:52:31;4.10;;;3.22;;
65230;SDS011;51813;40.666;16.602;2022-12-26T10:55:01;4.90;;;3.08;;
65230;SDS011;51813;40.666;16.602;2022-12-26T10:57:28;4.53;;;3.20;;
65230;SDS011;51813;40.666;16.602;2022-12-26T10:59:56;5.30;;;3.15;;
65230;SDS011;51813;40.666;16.602;2022-12-26T11:02:30;4.70;;;3.00;;
65230;SDS011;51813;40.666;16.602;2022-12-26T11:04:57;4.95;;;3.45;;
65230;SDS011;51813;40.666;16.602;2022-12-26T11:07:26;4.88;;;3.28;;
65230;SDS011;51813;40.666;16.602;2022-12-26T11:09:55;5.35;;;3.65;;
65230;SDS011;51813;40.666;16.602;2022-12-26T11:12:26;5.53;;;3.53;;
65230;SDS011;51813;40.666;16.602;2022-12-26T11:14:58;5.10;;;3.50;;
65230;SDS011;51813;40.666;16.602;2022-12-26T11:17:28;5.72;;;3.60;;
65230;SDS011;51813;40.666;16.602;2022-12-26T11:22:39;5.93;;;3.70;;
65230;SDS011;51813;40.666;16.602;2022-12-26T11:27:37;5.05;;;3.38;;
65230;SDS011;51813;40.666;16.602;2022-12-26T11:32:39;5.70;;;3.65;;
65230;SDS011;51813;40.666;16.602;2022-12-26T11:35:13;4.32;;;3.05;;
65230;SDS011;51813;40.666;16.602;2022-12-26T11:37:45;5.25;;;3.72;;
65230;SDS011;51813;40.666;16.602;2022-12-26T11:40:19;5.40;;;3.35;;
65230;SDS011;51813;40.666;16.602;2022-12-26T11:42:57;4.97;;;3.47;;
65230;SDS011;51813;40.666;16.602;2022-12-26T11:47:52;4.80;;;3.22;;
65230;SDS011;51813;40.666;16.602;2022-12-26T11:50:21;5.15;;;3.50;;
65230;SDS011;51813;40.666;16.602;2022-12-26T11:58:05;5.40;;;3.65;;
65230;SDS011;51813;40.666;16.602;2022-12-26T12:00:43;4.97;;;;;
65230;SDS011;51813;40.666;16.602;2022-12-26T12:11:38;4.80;;;3.30;;
65230;SDS011;51813;40.666;16.602;2022-12-26T12:27:32;4.95;;;3.63;;
65230;SDS011;51813;40.666;16.602;2022-12-26T12:30:04;4.75;;;3.50;;
65230;SDS011;51813;40.666;16.602;2022-12-26T12:35:26;4.07;;;3.10;;
65230;SDS011;51813;40.666;16.602;2022-12-26T12:46:54;6.13;;;2.95;;
65230;SDS011;51813;40.666;16.602;2022-12-26T12:57:51;5.35;;;3.40;;
65230;SDS011;51813;40.666;16.602;2022-12-26T13:00:23;6.00;;;4.22;;
65230;SDS011;51813;40.666;16.602;2022-12-26T13:02:58;5.47;;;3.47;;
65230;SDS011;51813;40.666;16.602;2022-12-26T13:08:55;5.72;;;3.85;;
65230;SDS011;51813;40.666;16.602;2022-12-26T13:11:31;5.67;;;3.93;;
65230;SDS011;51813;40.666;16.602;2022-12-26T13:14:01;5.38;;;3.70;;
65230;SDS011;51813;40.666;16.602;2022-12-26T13:16:39;5.38;;;3.85;;
65230;SDS011;51813;40.666;16.602;2022-12-26T13:19:12;5.13;;;3.50;;
65230;SDS011;51813;40.666;16.602;2022-12-26T13:21:47;6.10;;;4.15;;
65230;SDS011;51813;40.666;16.602;2022-12-26T13:24:16;4.90;;;3.47;;
65230;SDS011;51813;40.666;16.602;2022-12-26T13:29:44;5.72;;;3.88;;
65230;SDS011;51813;40.666;16.602;2022-12-26T13:32:30;5.45;;;3.70;;
65230;SDS011;51813;40.666;16.602;2022-12-26T13:34:57;6.20;;;3.80;;
65230;SDS011;51813;40.666;16.602;2022-12-26T13:40:03;5.43;;;3.72;;
65230;SDS011;51813;40.666;16.602;2022-12-26T13:45:38;5.70;;;4.10;;
65230;SDS011;51813;40.666;16.602;2022-12-26T13:51:02;5.78;;;4.28;;
65230;SDS011;51813;40.666;16.602;2022-12-26T14:07:31;6.47;;;4.15;;
65230;SDS011;51813;40.666;16.602;2022-12-26T14:10:26;6.68;;;4.65;;
65230;SDS011;51813;40.666;16.602;2022-12-26T14:13:04;5.88;;;4.03;;
65230;SDS011;51813;40.666;16.602;2022-12-26T14:19:15;6.20;;;4.43;;
65230;SDS011;51813;40.666;16.602;2022-12-26T14:21:54;6.03;;;4.35;;
65230;SDS011;51813;40.666;16.602;2022-12-26T14:30:29;6.50;;;4.90;;
65230;SDS011;51813;40.666;16.602;2022-12-26T14:43:32;5.78;;;3.97;;
65230;SDS011;51813;40.666;16.602;2022-12-26T14:46:00;6.10;;;4.10;;
65230;SDS011;51813;40.666;16.602;2022-12-26T14:53:32;5.80;;;3.95;;
65230;SDS011;51813;40.666;16.602;2022-12-26T15:06:44;5.40;;;3.58;;
65230;SDS011;51813;40.666;16.602;2022-12-26T15:15:46;5.60;;;3.50;;
65230;SDS011;51813;40.666;16.602;2022-12-26T15:39:55;5.13;;;3.65;;
65230;SDS011;51813;40.666;16.602;2022-12-26T15:47:51;6.65;;;3.70;;
65230;SDS011;51813;40.666;16.602;2022-12-26T15:53:32;4.97;;;3.45;;
65230;SDS011;51813;40.666;16.602;2022-12-26T16:02:00;4.55;;;3.08;;
65230;SDS011;51813;40.666;16.602;2022-12-26T16:04:36;5.60;;;3.67;;
65230;SDS011;51813;40.666;16.602;2022-12-26T16:09:57;5.28;;;3.55;;
65230;SDS011;51813;40.666;16.602;2022-12-26T16:12:31;5.95;;;3.70;;
65230;SDS011;51813;40.666;16.602;2022-12-26T16:15:32;5.38;;;3.50;;
65230;SDS011;51813;40.666;16.602;2022-12-26T16:17:51;4.97;;;3.70;;
65230;SDS011;51813;40.666;16.602;2022-12-26T16:23:11;6.80;;;3.63;;
65230;SDS011;51813;40.666;16.602;2022-12-26T16:25:44;5.00;;;3.63;;
65230;SDS011;51813;40.666;16.602;2022-12-26T16:28:11;5.63;;;3.70;;
65230;SDS011;51813;40.666;16.602;2022-12-26T16:30:38;6.07;;;3.90;;
65230;SDS011;51813;40.666;16.602;2022-12-26T16:33:04;5.25;;;3.58;;
65230;SDS011;51813;40.666;16.602;2022-12-26T16:35:31;5.53;;;3.58;;
65230;SDS011;51813;40.666;16.602;2022-12-26T16:37:59;6.35;;;3.90;;
65230;SDS011;51813;40.666;16.602;2022-12-26T16:40:32;6.25;;;4.10;;
65230;SDS011;51813;40.666;16.602;2022-12-26T16:46:08;6.07;;;3.72;;
65230;SDS011;51813;40.666;16.602;2022-12-26T16:48:36;5.70;;;3.80;;
65230;SDS011;51813;40.666;16.602;2022-12-26T16:51:05;6.63;;;4.20;;
65230;SDS011;51813;40.666;16.602;2022-12-26T16:53:50;8.48;;;4.63;;
65230;SDS011;51813;40.666;16.602;2022-12-26T16:56:30;6.65;;;4.50;;
65230;SDS011;51813;40.666;16.602;2022-12-26T17:01:40;6.25;;;4.13;;
65230;SDS011;51813;40.666;16.602;2022-12-26T17:04:22;6.28;;;4.05;;
65230;SDS011;51813;40.666;16.602;2022-12-26T17:06:51;5.88;;;4.00;;
65230;SDS011;51813;40.666;16.602;2022-12-26T17:09:20;5.83;;;4.17;;
65230;SDS011;51813;40.666;16.602;2022-12-26T17:11:59;5.25;;;3.80;;
65230;SDS011;51813;40.666;16.602;2022-12-26T17:14:36;6.10;;;3.90;;
65230;SDS011;51813;40.666;16.602;2022-12-26T17:17:45;6.13;;;4.20;;
65230;SDS011;51813;40.666;16.602;2022-12-26T17:19:57;7.05;;;4.30;;
65230;SDS011;51813;40.666;16.602;2022-12-26T17:22:43;6.75;;;4.40;;
65230;SDS011;51813;40.666;16.602;2022-12-26T17:30:36;6.97;;;4.40;;
65230;SDS011;51813;40.666;16.602;2022-12-26T17:35:39;6.82;;;4.20;;
65230;SDS011;51813;40.666;16.602;2022-12-26T17:38:10;6.07;;;4.22;;
65230;SDS011;51813;40.666;16.602;2022-12-26T17:40:43;6.72;;;4.20;;
65230;SDS011;51813;40.666;16.602;2022-12-26T17:45:36;6.28;;;4.68;;
65230;SDS011;51813;40.666;16.602;2022-12-26T17:48:03;5.63;;;3.92;;
65230;SDS011;51813;40.666;16.602;2022-12-26T17:50:31;6.90;;;4.57;;
65230;SDS011;51813;40.666;16.602;2022-12-26T17:53:41;6.93;;;4.57;;
65230;SDS011;51813;40.666;16.602;2022-12-26T17:56:11;6.63;;;4.50;;
65230;SDS011;51813;40.666;16.602;2022-12-26T17:58:40;6.45;;;4.47;;
65230;SDS011;51813;40.666;16.602;2022-12-26T18:01:07;6.75;;;4.80;;
65230;SDS011;51813;40.666;16.602;2022-12-26T18:03:33;6.75;;;4.70;;
65230;SDS011;51813;40.666;16.602;2022-12-26T18:05:58;7.07;;;4.60;;
65230;SDS011;51813;40.666;16.602;2022-12-26T18:11:02;6.35;;;4.50;;
65230;SDS011;51813;40.666;16.602;2022-12-26T18:13:29;6.93;;;4.68;;
65230;SDS011;51813;40.666;16.602;2022-12-26T18:15:55;6.43;;;4.47;;
65230;SDS011;51813;40.666;16.602;2022-12-26T18:18:27;7.28;;;4.97;;
65230;SDS011;51813;40.666;16.602;2022-12-26T18:21:06;7.43;;;4.65;;
65230;SDS011;51813;40.666;16.602;2022-12-26T18:23:34;6.85;;;4.88;;
65230;SDS011;51813;40.666;16.602;2022-12-26T18:26:05;6.05;;;4.43;;
65230;SDS011;51813;40.666;16.602;2022-12-26T18:28:33;6.25;;;4.47;;
65230;SDS011;51813;40.666;16.602;2022-12-26T18:30:59;6.93;;;4.60;;
65230;SDS011;51813;40.666;16.602;2022-12-26T18:33:25;6.65;;;4.30;;
65230;SDS011;51813;40.666;16.602;2022-12-26T18:35:50;6.53;;;4.40;;
65230;SDS011;51813;40.666;16.602;2022-12-26T18:38:17;7.03;;;5.00;;
65230;SDS011;51813;40.666;16.602;2022-12-26T18:40:45;7.50;;;4.97;;
65230;SDS011;51813;40.666;16.602;2022-12-26T18:43:13;6.55;;;4.65;;
65230;SDS011;51813;40.666;16.602;2022-12-26T18:45:39;7.03;;;4.72;;
65230;SDS011;51813;40.666;16.602;2022-12-26T18:48:06;6.88;;;4.75;;
65230;SDS011;51813;40.666;16.602;2022-12-26T18:50:35;6.15;;;4.65;;
65230;SDS011;51813;40.666;16.602;2022-12-26T18:53:01;6.70;;;4.50;;
65230;SDS011;51813;40.666;16.602;2022-12-26T18:55:27;7.20;;;4.70;;
65230;SDS011;51813;40.666;16.602;2022-12-26T18:57:53;7.07;;;4.80;;
65230;SDS011;51813;40.666;16.602;2022-12-26T19:00:19;7.07;;;5.05;;
65230;SDS011;51813;40.666;16.602;2022-12-26T19:02:46;7.13;;;4.80;;
65230;SDS011;51813;40.666;16.602;2022-12-26T19:05:13;7.03;;;4.45;;
65230;SDS011;51813;40.666;16.602;2022-12-26T19:07:45;6.53;;;4.57;;
65230;SDS011;51813;40.666;16.602;2022-12-26T19:10:12;6.88;;;4.88;;
65230;SDS011;51813;40.666;16.602;2022-12-26T19:12:40;6.88;;;5.10;;
65230;SDS011;51813;40.666;16.602;2022-12-26T19:15:06;7.78;;;5.38;;
65230;SDS011;51813;40.666;16.602;2022-12-26T19:17:32;7.47;;;4.85;;
65230;SDS011;51813;40.666;16.602;2022-12-26T19:19:59;7.00;;;4.70;;
65230;SDS011;51813;40.666;16.602;2022-12-26T19:22:24;8.50;;;5.32;;
65230;SDS011;51813;40.666;16.602;2022-12-26T19:24:50;6.80;;;4.80;;
65230;SDS011;51813;40.666;16.602;2022-12-26T19:27:17;7.63;;;5.20;;